Genesis Vision — WDG9349 — position and weather

sailwx.info

Track history (hours):
 
Tides and Currents Weather Stations Pressure Air Temp Water Temp Dewpoint Dewpoint Depression Visibility Wind Speed Wind Dir Waves Ship Positions

Genesis Vision

Owner: Genesis Marine, LLC, Houston, TX. More information available from US FCC via Universal Licensing System and Coast Guard Vessel Documentation Center.

Last reported at 2018-Feb-18 14:02 UTC. Time now 2018-Feb-18 18:28 UTC.
Position N 27°49' W 097°13'.

Length 30 m; draft 5.4 m.

Type: Tug. MMSI: 338343000.

Date/timePositionNaut miles runAvg speedWind from/ knotsBaromVisibWave heightAir tempDewpointWater temp
2018-Feb-18 14:02N 27°49' W 097°13'0 0.0
2018-Feb-18 13:59N 27°49' W 097°13'0 0.0
2018-Feb-18 13:20N 27°49' W 097°13'0 0.0
2018-Feb-18 12:23N 27°49' W 097°13'0 0.0
2018-Feb-18 11:59N 27°49' W 097°13'0 0.0
2018-Feb-18 10:32N 27°49' W 097°13'0 0.1
2018-Feb-18 10:29N 27°49' W 097°13'10 0.3
2018-Feb-16 22:58N 27°49' W 097°24'0 0.0
2018-Feb-16 12:28N 27°49' W 097°24'0 0.0
2018-Feb-16 03:07N 27°49' W 097°24'0 0.0
2018-Feb-16 02:49N 27°49' W 097°24'0 0.0
2018-Feb-16 02:28N 27°49' W 097°24'0 0.0
2018-Feb-16 01:58N 27°49' W 097°24'0 0.0
2018-Feb-16 01:28N 27°49' W 097°24'0 0.0
2018-Feb-16 00:58N 27°49' W 097°24'0 0.0
2018-Feb-15 23:34N 27°49' W 097°24'0 0.0
2018-Feb-15 23:30N 27°49' W 097°24'0 0.0
2018-Feb-15 23:00N 27°49' W 097°24'3 5.6
2018-Feb-15 22:29N 27°49' W 097°21'7 0.4
2018-Feb-15 03:12N 27°49' W 097°13'0 0.0
2018-Feb-15 02:42N 27°49' W 097°13'0 0.0
2018-Feb-15 02:27N 27°49' W 097°13'0 0.0
2018-Feb-15 01:54N 27°49' W 097°13'0 0.0
2018-Feb-15 01:21N 27°49' W 097°13'0 0.0
2018-Feb-15 00:57N 27°49' W 097°13'0 0.0
2018-Feb-15 00:27N 27°49' W 097°13'0 0.0
2018-Feb-15 00:00N 27°49' W 097°13'0 0.0
2018-Feb-14 23:30N 27°49' W 097°13'0 0.0
2018-Feb-14 23:00N 27°49' W 097°13'0 0.0
2018-Feb-14 22:30N 27°49' W 097°13'0 0.0
2018-Feb-14 21:54N 27°49' W 097°13'0 0.0
2018-Feb-14 21:30N 27°49' W 097°13'0 0.0
2018-Feb-14 21:00N 27°49' W 097°13'0 0.0
2018-Feb-14 20:30N 27°49' W 097°13'0 0.0
2018-Feb-14 19:57N 27°49' W 097°13'0 0.0
2018-Feb-14 19:30N 27°49' W 097°13'0 0.0
2018-Feb-14 18:27N 27°49' W 097°13'0 0.0
2018-Feb-14 18:00N 27°49' W 097°13'0 0.0
2018-Feb-14 17:30N 27°49' W 097°13'0 0.0
2018-Feb-14 16:54N 27°49' W 097°13'0 0.0
2018-Feb-14 16:30N 27°49' W 097°13'0 0.0
2018-Feb-14 15:57N 27°49' W 097°13'0 0.0
2018-Feb-14 15:27N 27°49' W 097°13'0 0.0
2018-Feb-14 13:48N 27°49' W 097°13'0 0.0
2018-Feb-14 10:51N 27°49' W 097°13'0 0.0
2018-Feb-14 10:27N 27°49' W 097°13'0 0.0
2018-Feb-14 09:57N 27°49' W 097°13'0 0.0
2018-Feb-14 09:27N 27°49' W 097°13'0 0.0
2018-Feb-14 08:57N 27°49' W 097°13'0 0.0
2018-Feb-14 08:30N 27°49' W 097°13'0 0.0
2018-Feb-14 08:00N 27°49' W 097°13'0 0.0
2018-Feb-14 07:30N 27°49' W 097°13'0 0.0
2018-Feb-14 07:00N 27°49' W 097°13'0 0.0
2018-Feb-14 06:30N 27°49' W 097°13'0 0.0
2018-Feb-14 06:00N 27°49' W 097°13'0 0.0
2018-Feb-14 05:27N 27°49' W 097°13'0 0.0
2018-Feb-14 05:00N 27°49' W 097°13'0 0.0
2018-Feb-14 04:30N 27°49' W 097°13'0 0.0
2018-Feb-14 03:57N 27°49' W 097°13'0 0.0
2018-Feb-14 03:30N 27°49' W 097°13'0 0.0
2018-Feb-14 03:00N 27°49' W 097°13'0 0.0
2018-Feb-14 02:30N 27°49' W 097°13'0 0.0
2018-Feb-14 02:00N 27°49' W 097°13'0 0.0
2018-Feb-14 01:30N 27°49' W 097°13'0 0.0
2018-Feb-14 01:00N 27°49' W 097°13'0 0.0
2018-Feb-14 00:30N 27°49' W 097°13'0 0.0
2018-Feb-14 00:00N 27°49' W 097°13'0 0.0
2018-Feb-13 23:30N 27°49' W 097°13'0 0.0
2018-Feb-13 23:00N 27°49' W 097°13'0 0.0
2018-Feb-13 22:30N 27°49' W 097°13'0 0.0
2018-Feb-13 22:00N 27°49' W 097°13'0 0.0
2018-Feb-13 21:30N 27°49' W 097°13'0 0.0
2018-Feb-13 21:00N 27°49' W 097°13'0 0.0
2018-Feb-13 20:30N 27°49' W 097°13'0 0.0
2018-Feb-13 20:00N 27°49' W 097°13'0 0.0
2018-Feb-13 19:30N 27°49' W 097°13'0 0.0
2018-Feb-13 19:00N 27°49' W 097°13'0 0.0
2018-Feb-13 18:27N 27°49' W 097°13'0 0.0
2018-Feb-13 18:00N 27°49' W 097°13'0 0.0
2018-Feb-13 17:30N 27°49' W 097°13'0 0.0
2018-Feb-13 17:00N 27°49' W 097°13'0 0.0
2018-Feb-13 16:30N 27°49' W 097°13'0 0.0
2018-Feb-13 16:00N 27°49' W 097°13'0 0.0
2018-Feb-13 15:30N 27°49' W 097°13'0 0.0
2018-Feb-13 15:00N 27°49' W 097°13'0 0.0
2018-Feb-13 14:30N 27°49' W 097°13'0 0.0
2018-Feb-13 14:00N 27°49' W 097°13'0 0.0
2018-Feb-13 13:30N 27°49' W 097°13'0 0.0
2018-Feb-13 13:00N 27°49' W 097°13'0 0.0
2018-Feb-13 12:30N 27°49' W 097°13'0 0.0
2018-Feb-13 12:00N 27°49' W 097°13'0 0.0
2018-Feb-13 11:30N 27°49' W 097°13'0 0.0
2018-Feb-13 11:00N 27°49' W 097°13'0 0.0
2018-Feb-13 10:30N 27°49' W 097°13'0 0.0
2018-Feb-13 10:00N 27°49' W 097°13'0 0.0
2018-Feb-13 09:30N 27°49' W 097°13'0 0.0
2018-Feb-13 09:00N 27°49' W 097°13'0 0.0
2018-Feb-13 08:30N 27°49' W 097°13'0 0.0
2018-Feb-13 08:00N 27°49' W 097°13'0 0.0
2018-Feb-13 07:30N 27°49' W 097°13'0 0.0
2018-Feb-13 07:00N 27°49' W 097°13'0 0.0
2018-Feb-13 06:30N 27°49' W 097°13'0 0.0
2018-Feb-13 06:00N 27°49' W 097°13'0 0.0
2018-Feb-13 05:30N 27°49' W 097°13'0 0.0
2018-Feb-13 05:00N 27°49' W 097°13'0 0.0
2018-Feb-13 04:30N 27°49' W 097°13'2 3.5
2018-Feb-13 03:57N 27°49' W 097°15'4 7.8
2018-Feb-13 03:29N 27°49' W 097°19'7 3.5
2018-Feb-13 01:36N 27°49' W 097°26'0 0.1
2018-Feb-13 01:24N 27°49' W 097°26'0 0.0
2018-Feb-13 00:51N 27°49' W 097°26'0 0.0
2018-Feb-13 00:27N 27°49' W 097°26'0 0.0
2018-Feb-13 00:00N 27°49' W 097°26'0 0.0
2018-Feb-12 23:09N 27°49' W 097°26'0 0.0
2018-Feb-12 22:51N 27°49' W 097°26'0 0.0
2018-Feb-12 22:12N 27°49' W 097°26'0 0.0
2018-Feb-12 21:57N 27°49' W 097°26'0 0.0
2018-Feb-12 21:24N 27°49' W 097°26'0 0.0
2018-Feb-12 20:54N 27°49' W 097°26'0 0.0
2018-Feb-12 20:03N 27°49' W 097°26'0 0.0
2018-Feb-12 19:48N 27°49' W 097°26'0 0.0
2018-Feb-12 19:24N 27°49' W 097°26'0 0.0
2018-Feb-12 18:51N 27°49' W 097°26'0 0.0
2018-Feb-12 18:03N 27°49' W 097°26'0 0.1
2018-Feb-12 18:00N 27°49' W 097°26'0 0.0
2018-Feb-12 17:27N 27°49' W 097°26'0 0.0
2018-Feb-12 16:57N 27°49' W 097°26'0 0.0
2018-Feb-12 16:30N 27°49' W 097°26'0 0.0
2018-Feb-12 15:51N 27°49' W 097°26'0 0.0
2018-Feb-12 15:06N 27°49' W 097°26'0 0.0
2018-Feb-12 15:00N 27°49' W 097°26'0 0.0
2018-Feb-12 14:30N 27°49' W 097°26'31 0.7
2018-Feb-10 15:49N 27°58' W 096°52'1 3.8
2018-Feb-10 15:27N 27°57' W 096°53'2 3.9
2018-Feb-10 15:00N 27°55' W 096°54'2 4.6
2018-Feb-10 14:27N 27°53' W 096°56'5 0.2
2018-Feb-09 07:00N 27°51' W 097°01'4 0.7
2018-Feb-09 01:30N 27°52' W 096°57'3 1.4
2018-Feb-08 23:30N 27°55' W 096°57'  
Track history (hours):
 
Tides and Currents Weather Stations Pressure Air Temp Water Temp Dewpoint Dewpoint Depression Visibility Wind Speed Wind Dir Waves Ship Positions

Genesis Vision

Owner: Genesis Marine, LLC, Houston, TX. More information available from US FCC via Universal Licensing System and Coast Guard Vessel Documentation Center.

Last reported at 2018-Feb-18 14:02 UTC. Time now 2018-Feb-18 18:28 UTC.
Position N 27°49' W 097°13'.

Length 30 m; draft 5.4 m.

Type: Tug. MMSI: 338343000.

Date/timePositionNaut miles runAvg speedWind from/ knotsBaromVisibWave heightAir tempDewpointWater temp
2018-Feb-18 14:02N 27°49' W 097°13'0 0.0
2018-Feb-18 13:59N 27°49' W 097°13'0 0.0
2018-Feb-18 13:20N 27°49' W 097°13'0 0.0
2018-Feb-18 12:23N 27°49' W 097°13'0 0.0
2018-Feb-18 11:59N 27°49' W 097°13'0 0.0
2018-Feb-18 10:32N 27°49' W 097°13'0 0.1
2018-Feb-18 10:29N 27°49' W 097°13'10 0.3
2018-Feb-16 22:58N 27°49' W 097°24'0 0.0
2018-Feb-16 12:28N 27°49' W 097°24'0 0.0
2018-Feb-16 03:07N 27°49' W 097°24'0 0.0
2018-Feb-16 02:49N 27°49' W 097°24'0 0.0
2018-Feb-16 02:28N 27°49' W 097°24'0 0.0
2018-Feb-16 01:58N 27°49' W 097°24'0 0.0
2018-Feb-16 01:28N 27°49' W 097°24'0 0.0
2018-Feb-16 00:58N 27°49' W 097°24'0 0.0
2018-Feb-15 23:34N 27°49' W 097°24'0 0.0
2018-Feb-15 23:30N 27°49' W 097°24'0 0.0
2018-Feb-15 23:00N 27°49' W 097°24'3 5.6
2018-Feb-15 22:29N 27°49' W 097°21'7 0.4
2018-Feb-15 03:12N 27°49' W 097°13'0 0.0
2018-Feb-15 02:42N 27°49' W 097°13'0 0.0
2018-Feb-15 02:27N 27°49' W 097°13'0 0.0
2018-Feb-15 01:54N 27°49' W 097°13'0 0.0
2018-Feb-15 01:21N 27°49' W 097°13'0 0.0
2018-Feb-15 00:57N 27°49' W 097°13'0 0.0
2018-Feb-15 00:27N 27°49' W 097°13'0 0.0
2018-Feb-15 00:00N 27°49' W 097°13'0 0.0
2018-Feb-14 23:30N 27°49' W 097°13'0 0.0
2018-Feb-14 23:00N 27°49' W 097°13'0 0.0
2018-Feb-14 22:30N 27°49' W 097°13'0 0.0
2018-Feb-14 21:54N 27°49' W 097°13'0 0.0
2018-Feb-14 21:30N 27°49' W 097°13'0 0.0
2018-Feb-14 21:00N 27°49' W 097°13'0 0.0
2018-Feb-14 20:30N 27°49' W 097°13'0 0.0
2018-Feb-14 19:57N 27°49' W 097°13'0 0.0
2018-Feb-14 19:30N 27°49' W 097°13'0 0.0
2018-Feb-14 18:27N 27°49' W 097°13'0 0.0
2018-Feb-14 18:00N 27°49' W 097°13'0 0.0
2018-Feb-14 17:30N 27°49' W 097°13'0 0.0
2018-Feb-14 16:54N 27°49' W 097°13'0 0.0
2018-Feb-14 16:30N 27°49' W 097°13'0 0.0
2018-Feb-14 15:57N 27°49' W 097°13'0 0.0
2018-Feb-14 15:27N 27°49' W 097°13'0 0.0
2018-Feb-14 13:48N 27°49' W 097°13'0 0.0
2018-Feb-14 10:51N 27°49' W 097°13'0 0.0
2018-Feb-14 10:27N 27°49' W 097°13'0 0.0
2018-Feb-14 09:57N 27°49' W 097°13'0 0.0
2018-Feb-14 09:27N 27°49' W 097°13'0 0.0
2018-Feb-14 08:57N 27°49' W 097°13'0 0.0
2018-Feb-14 08:30N 27°49' W 097°13'0 0.0
2018-Feb-14 08:00N 27°49' W 097°13'0 0.0
2018-Feb-14 07:30N 27°49' W 097°13'0 0.0
2018-Feb-14 07:00N 27°49' W 097°13'0 0.0
2018-Feb-14 06:30N 27°49' W 097°13'0 0.0
2018-Feb-14 06:00N 27°49' W 097°13'0 0.0
2018-Feb-14 05:27N 27°49' W 097°13'0 0.0
2018-Feb-14 05:00N 27°49' W 097°13'0 0.0
2018-Feb-14 04:30N 27°49' W 097°13'0 0.0
2018-Feb-14 03:57N 27°49' W 097°13'0 0.0
2018-Feb-14 03:30N 27°49' W 097°13'0 0.0
2018-Feb-14 03:00N 27°49' W 097°13'0 0.0
2018-Feb-14 02:30N 27°49' W 097°13'0 0.0
2018-Feb-14 02:00N 27°49' W 097°13'0 0.0
2018-Feb-14 01:30N 27°49' W 097°13'0 0.0
2018-Feb-14 01:00N 27°49' W 097°13'0 0.0
2018-Feb-14 00:30N 27°49' W 097°13'0 0.0
2018-Feb-14 00:00N 27°49' W 097°13'0 0.0
2018-Feb-13 23:30N 27°49' W 097°13'0 0.0
2018-Feb-13 23:00N 27°49' W 097°13'0 0.0
2018-Feb-13 22:30N 27°49' W 097°13'0 0.0
2018-Feb-13 22:00N 27°49' W 097°13'0 0.0
2018-Feb-13 21:30N 27°49' W 097°13'0 0.0
2018-Feb-13 21:00N 27°49' W 097°13'0 0.0
2018-Feb-13 20:30N 27°49' W 097°13'0 0.0
2018-Feb-13 20:00N 27°49' W 097°13'0 0.0
2018-Feb-13 19:30N 27°49' W 097°13'0 0.0
2018-Feb-13 19:00N 27°49' W 097°13'0 0.0
2018-Feb-13 18:27N 27°49' W 097°13'0 0.0
2018-Feb-13 18:00N 27°49' W 097°13'0 0.0
2018-Feb-13 17:30N 27°49' W 097°13'0 0.0
2018-Feb-13 17:00N 27°49' W 097°13'0 0.0
2018-Feb-13 16:30N 27°49' W 097°13'0 0.0
2018-Feb-13 16:00N 27°49' W 097°13'0 0.0
2018-Feb-13 15:30N 27°49' W 097°13'0 0.0
2018-Feb-13 15:00N 27°49' W 097°13'0 0.0
2018-Feb-13 14:30N 27°49' W 097°13'0 0.0
2018-Feb-13 14:00N 27°49' W 097°13'0 0.0
2018-Feb-13 13:30N 27°49' W 097°13'0 0.0
2018-Feb-13 13:00N 27°49' W 097°13'0 0.0
2018-Feb-13 12:30N 27°49' W 097°13'0 0.0
2018-Feb-13 12:00N 27°49' W 097°13'0 0.0
2018-Feb-13 11:30N 27°49' W 097°13'0 0.0
2018-Feb-13 11:00N 27°49' W 097°13'0 0.0
2018-Feb-13 10:30N 27°49' W 097°13'0 0.0
2018-Feb-13 10:00N 27°49' W 097°13'0 0.0
2018-Feb-13 09:30N 27°49' W 097°13'0 0.0
2018-Feb-13 09:00N 27°49' W 097°13'0 0.0
2018-Feb-13 08:30N 27°49' W 097°13'0 0.0
2018-Feb-13 08:00N 27°49' W 097°13'0 0.0
2018-Feb-13 07:30N 27°49' W 097°13'0 0.0
2018-Feb-13 07:00N 27°49' W 097°13'0 0.0
2018-Feb-13 06:30N 27°49' W 097°13'0 0.0
2018-Feb-13 06:00N 27°49' W 097°13'0 0.0
2018-Feb-13 05:30N 27°49' W 097°13'0 0.0
2018-Feb-13 05:00N 27°49' W 097°13'0 0.0
2018-Feb-13 04:30N 27°49' W 097°13'2 3.5
2018-Feb-13 03:57N 27°49' W 097°15'4 7.8
2018-Feb-13 03:29N 27°49' W 097°19'7 3.5
2018-Feb-13 01:36N 27°49' W 097°26'0 0.1
2018-Feb-13 01:24N 27°49' W 097°26'0 0.0
2018-Feb-13 00:51N 27°49' W 097°26'0 0.0
2018-Feb-13 00:27N 27°49' W 097°26'0 0.0
2018-Feb-13 00:00N 27°49' W 097°26'0 0.0
2018-Feb-12 23:09N 27°49' W 097°26'0 0.0
2018-Feb-12 22:51N 27°49' W 097°26'0 0.0
2018-Feb-12 22:12N 27°49' W 097°26'0 0.0
2018-Feb-12 21:57N 27°49' W 097°26'0 0.0
2018-Feb-12 21:24N 27°49' W 097°26'0 0.0
2018-Feb-12 20:54N 27°49' W 097°26'0 0.0
2018-Feb-12 20:03N 27°49' W 097°26'0 0.0
2018-Feb-12 19:48N 27°49' W 097°26'0 0.0
2018-Feb-12 19:24N 27°49' W 097°26'0 0.0
2018-Feb-12 18:51N 27°49' W 097°26'0 0.0
2018-Feb-12 18:03N 27°49' W 097°26'0 0.1
2018-Feb-12 18:00N 27°49' W 097°26'0 0.0
2018-Feb-12 17:27N 27°49' W 097°26'0 0.0
2018-Feb-12 16:57N 27°49' W 097°26'0 0.0
2018-Feb-12 16:30N 27°49' W 097°26'0 0.0
2018-Feb-12 15:51N 27°49' W 097°26'0 0.0
2018-Feb-12 15:06N 27°49' W 097°26'0 0.0
2018-Feb-12 15:00N 27°49' W 097°26'0 0.0
2018-Feb-12 14:30N 27°49' W 097°26'31 0.7
2018-Feb-10 15:49N 27°58' W 096°52'1 3.8
2018-Feb-10 15:27N 27°57' W 096°53'2 3.9
2018-Feb-10 15:00N 27°55' W 096°54'2 4.6
2018-Feb-10 14:27N 27°53' W 096°56'5 0.2
2018-Feb-09 07:00N 27°51' W 097°01'4 0.7
2018-Feb-09 01:30N 27°52' W 096°57'3 1.4
2018-Feb-08 23:30N 27°55' W 096°57'  

Dump ship's entire track history